Terminal Aerodrome Forecast
Issued by NWS

Home | Current Version | Previous Version | Text Only | Print | Product List | Glossary On
Versions: 1 2 3 4 5 6 7 8 9 10 11 12 13 14
706
FTUS45 KABQ 241725
TAFSAF
TAF
KSAF 241725Z 2418/2518 21011KT P6SM SCT250
     FM242000 21016G24KT P6SM SCT250
     FM250000 14022G32KT P6SM SCT150
     FM250200 13027G36KT P6SM SCT040 SCT120
     FM250800 15015KT P6SM BKN040
     FM251500 15015G22KT P6SM SCT040=

USA.gov is the U.S. government's official web portal to all federal, state and local government web resources and services.